Time;durP1;ratioP1;P1;durP2;ratioP2;P2;SDS_P1;SDS_P2;PMS_P1;PMS_P2;Temp;Humidity;BMP_temperature;BMP_pressure;BME280_temperature;BME280_humidity;BME280_pressure;Samples;Min_cycle;Max_cycle;Signal;HPM_P1;HPM_P2
2022/08/23 00:01:31;;;;;;;23.42;9.90;;;17.10;99.90;;;;;;5075723;28;20048;-74
2022/08/23 00:04:02;;;;;;;25.35;10.45;;;17.00;99.90;;;;;;5094561;28;20044;-73
2022/08/23 00:06:28;;;;;;;26.48;10.70;;;17.00;99.90;;;;;;5094085;28;20084;-73
2022/08/23 00:08:55;;;;;;;22.35;10.18;;;17.00;99.90;;;;;;5075720;28;20044;-72
2022/08/23 00:11:28;;;;;;;26.50;11.13;;;17.00;99.90;;;;;;5075679;28;20048;-73
2022/08/23 00:13:55;;;;;;;24.85;10.52;;;16.90;99.90;;;;;;5094565;28;20044;-73
2022/08/23 00:16:21;;;;;;;22.73;10.75;;;16.90;99.90;;;;;;5093560;28;20104;-73
2022/08/23 00:18:47;;;;;;;23.20;10.73;;;16.90;99.90;;;;;;5092230;28;20480;-73
2022/08/23 00:21:13;;;;;;;26.07;10.27;;;16.90;99.90;;;;;;5042530;28;20123;-72
2022/08/23 00:23:39;;;;;;;25.60;10.63;;;16.90;99.90;;;;;;5092287;28;20281;-73
2022/08/23 00:26:05;;;;;;;26.20;10.93;;;16.90;99.90;;;;;;5075209;28;20044;-75
2022/08/23 00:28:30;;;;;;;22.92;11.10;;;16.90;99.90;;;;;;5093968;28;20055;-74
2022/08/23 00:30:58;;;;;;;20.17;10.70;;;16.80;99.90;;;;;;5093318;28;20048;-75
2022/08/23 00:33:24;;;;;;;22.15;11.02;;;16.80;99.90;;;;;;5075124;28;20051;-73
2022/08/23 00:35:50;;;;;;;29.58;11.77;;;16.80;99.90;;;;;;5074972;28;20048;-73
2022/08/23 00:38:16;;;;;;;23.75;10.95;;;16.80;99.90;;;;;;5075529;28;20059;-73
2022/08/23 00:40:44;;;;;;;27.92;12.00;;;16.70;99.90;;;;;;5093302;28;20059;-73
2022/08/23 00:49:10;;;;;;;27.42;11.55;;;16.80;99.90;;;;;;5074286;28;20048;-73
2022/08/23 00:51:47;;;;;;;27.63;11.18;;;16.70;99.90;;;;;;5092139;28;20039;-73
2022/08/23 00:54:15;;;;;;;28.88;11.45;;;16.70;99.90;;;;;;5059031;28;20097;-74
2022/08/23 00:56:41;;;;;;;28.75;11.35;;;16.70;99.90;;;;;;5074793;28;20048;-74
2022/08/23 00:59:07;;;;;;;25.90;12.05;;;16.70;99.90;;;;;;5074933;28;20135;-72
2022/08/23 01:01:33;;;;;;;23.30;11.83;;;16.70;99.90;;;;;;5092889;28;20177;-75
2022/08/23 01:04:00;;;;;;;26.63;11.60;;;16.70;99.90;;;;;;5075183;28;20051;-80
2022/08/23 01:06:36;;;;;;;26.52;11.77;;;16.70;99.90;;;;;;5092609;28;20424;-72
2022/08/23 01:09:09;;;;;;;25.40;11.60;;;16.70;99.90;;;;;;5093101;28;20376;-72
2022/08/23 01:12:06;;;;;;;23.05;12.23;;;16.70;99.90;;;;;;5057550;28;20059;-79
2022/08/23 01:14:50;;;;;;;29.52;12.68;;;16.70;99.90;;;;;;5065303;28;20292;-72
2022/08/23 01:17:28;;;;;;;27.55;13.13;;;16.60;99.90;;;;;;5093016;28;20040;-72
2022/08/23 01:20:01;;;;;;;28.02;12.75;;;16.60;99.90;;;;;;5075583;28;20134;-73
2022/08/23 01:22:43;;;;;;;25.40;12.40;;;16.60;99.90;;;;;;5092705;28;20120;-72
2022/08/23 01:25:12;;;;;;;25.60;12.43;;;16.60;99.90;;;;;;5074982;28;20048;-73
2022/08/23 01:27:38;;;;;;;29.73;13.23;;;16.50;99.90;;;;;;5074581;28;20136;-72
2022/08/23 01:30:08;;;;;;;24.27;12.57;;;16.50;99.90;;;;;;5074451;28;20104;-72
2022/08/23 01:32:43;;;;;;;25.38;12.32;;;16.50;99.90;;;;;;5058669;28;20048;-72
2022/08/23 01:35:09;;;;;;;32.92;13.30;;;16.50;99.90;;;;;;5074722;28;20097;-72
2022/08/23 01:37:35;;;;;;;31.23;13.55;;;16.50;99.90;;;;;;5092454;28;20535;-72
2022/08/23 01:40:01;;;;;;;28.42;13.45;;;16.50;99.90;;;;;;5092637;28;20512;-72
2022/08/23 01:42:27;;;;;;;29.10;13.70;;;16.50;99.90;;;;;;5041274;28;20396;-74
2022/08/23 01:44:53;;;;;;;27.42;13.27;;;16.40;99.90;;;;;;5092907;28;20040;-72
2022/08/23 01:47:18;;;;;;;25.80;13.23;;;16.40;99.90;;;;;;5092425;28;20047;-73
2022/08/23 01:49:44;;;;;;;22.88;12.85;;;16.40;99.90;;;;;;5074456;28;20392;-73
2022/08/23 01:52:10;;;;;;;31.60;13.57;;;16.30;99.90;;;;;;5092341;28;20113;-73
2022/08/23 01:54:35;;;;;;;29.95;12.90;;;16.30;99.90;;;;;;5074286;28;20048;-71
2022/08/23 01:57:01;;;;;;;32.17;13.43;;;16.30;99.90;;;;;;5092380;28;20369;-72
2022/08/23 01:59:27;;;;;;;31.95;14.18;;;16.30;99.90;;;;;;5092391;28;20044;-72
2022/08/23 02:01:53;;;;;;;30.00;14.73;;;16.30;99.90;;;;;;5092686;28;20123;-72
2022/08/23 02:04:21;;;;;;;31.83;13.43;;;16.30;99.90;;;;;;5078508;28;20040;-72
2022/08/23 02:06:47;;;;;;;29.65;13.70;;;16.20;99.90;;;;;;5078453;28;20067;-72
2022/08/23 02:09:12;;;;;;;26.63;13.77;;;16.20;99.90;;;;;;5077716;28;20044;-72
2022/08/23 02:11:41;;;;;;;26.47;13.33;;;16.20;99.90;;;;;;5094760;28;20123;-73
2022/08/23 02:14:17;;;;;;;28.83;13.38;;;16.10;99.90;;;;;;5096032;28;20044;-71
2022/08/23 02:16:46;;;;;;;31.23;14.98;;;16.10;99.90;;;;;;5095946;28;20051;-71
2022/08/23 02:19:13;;;;;;;33.00;14.88;;;16.10;99.90;;;;;;5077553;28;20052;-73
2022/08/23 02:21:39;;;;;;;;;;;16.10;99.90;;;;;;5096879;28;20059;-72
2022/08/23 02:24:09;;;;;;;25.88;14.10;;;16.10;99.90;;;;;;5078243;28;20316;-73
2022/08/23 02:26:36;;;;;;;30.40;14.38;;;16.10;99.90;;;;;;5077423;28;20043;-78
2022/08/23 02:29:03;;;;;;;28.38;14.75;;;16.10;99.90;;;;;;5077839;28;20408;-72
2022/08/23 02:31:29;;;;;;;33.65;15.68;;;16.10;99.90;;;;;;5095626;28;20052;-74
2022/08/23 02:33:55;;;;;;;30.40;14.93;;;16.10;99.90;;;;;;5094759;28;20066;-72
2022/08/23 02:36:20;;;;;;;35.10;14.35;;;16.10;99.90;;;;;;5095423;28;20064;-73
2022/08/23 02:38:46;;;;;;;31.80;15.68;;;16.00;99.90;;;;;;5078127;28;20051;-72
2022/08/23 02:41:13;;;;;;;29.38;14.85;;;16.10;99.90;;;;;;5096245;28;20048;-72
2022/08/23 02:43:39;;;;;;;34.35;15.95;;;16.00;99.90;;;;;;5078173;28;20056;-72
2022/08/23 02:46:05;;;;;;;32.17;15.63;;;16.00;99.90;;;;;;5095017;28;20040;-71
2022/08/23 02:48:32;;;;;;;33.97;15.43;;;15.90;99.90;;;;;;5095194;28;20044;-71
2022/08/23 02:51:05;;;;;;;32.85;16.15;;;15.90;99.90;;;;;;5077369;28;20052;-73
2022/08/23 02:53:31;;;;;;;33.17;15.75;;;15.90;99.90;;;;;;5076872;28;20489;-71
2022/08/23 02:55:57;;;;;;;30.70;15.68;;;15.90;99.90;;;;;;5095995;28;20087;-71
2022/08/23 02:58:23;;;;;;;27.88;15.70;;;15.90;99.90;;;;;;5076886;28;20410;-73
2022/08/23 03:00:50;;;;;;;34.40;16.15;;;15.90;99.90;;;;;;5095239;28;20043;-73
2022/08/23 03:03:17;;;;;;;35.70;16.60;;;15.90;99.90;;;;;;5076979;28;20399;-72
2022/08/23 03:05:43;;;;;;;32.28;16.05;;;15.90;99.90;;;;;;5095398;28;20371;-71
2022/08/23 03:08:09;;;;;;;28.33;16.73;;;15.90;99.90;;;;;;5094957;28;20040;-72
2022/08/23 03:10:36;;;;;;;38.47;17.25;;;15.80;99.90;;;;;;5095294;28;20054;-73
2022/08/23 03:13:02;;;;;;;;;;;15.80;99.90;;;;;;5077154;28;20484;-70
2022/08/23 03:15:28;;;;;;;33.20;16.83;;;15.80;99.90;;;;;;5093594;28;19926;-72
2022/08/23 03:17:54;;;;;;;37.60;18.30;;;15.80;99.90;;;;;;5060636;28;20316;-71
2022/08/23 03:20:20;;;;;;;31.42;16.60;;;15.80;99.90;;;;;;5060638;28;20048;-72
2022/08/23 03:22:46;;;;;;;36.07;17.97;;;15.80;99.90;;;;;;5076927;28;20540;-71
2022/08/23 03:25:12;;;;;;;33.53;18.00;;;15.80;99.90;;;;;;5094529;28;20322;-72
2022/08/23 03:27:38;;;;;;;40.80;18.92;;;15.80;99.90;;;;;;5095294;28;20075;-71
2022/08/23 03:30:05;;;;;;;32.97;18.60;;;15.80;99.90;;;;;;5094878;28;20044;-72
2022/08/23 03:32:31;;;;;;;36.85;17.95;;;15.80;99.90;;;;;;5076643;28;20051;-72
2022/08/23 03:34:56;;;;;;;34.13;17.67;;;15.70;99.90;;;;;;5094580;28;20040;-71
2022/08/23 03:37:22;;;;;;;37.58;18.35;;;15.70;99.90;;;;;;5094406;28;20071;-71
2022/08/23 03:39:48;;;;;;;33.33;17.67;;;15.70;99.90;;;;;;5094521;28;20087;-74
2022/08/23 03:42:15;;;;;;;36.70;18.17;;;15.70;99.90;;;;;;5095253;28;20048;-74
2022/08/23 03:44:40;;;;;;;34.08;18.20;;;15.70;99.90;;;;;;5060295;28;20567;-72
2022/08/23 03:47:06;;;;;;;35.42;18.15;;;15.60;99.90;;;;;;5059572;28;20127;-72
2022/08/23 03:49:33;;;;;;;36.83;18.20;;;15.60;99.90;;;;;;5094025;28;20051;-72
2022/08/23 03:51:59;;;;;;;36.97;17.27;;;15.60;99.90;;;;;;5075623;28;20625;-72
2022/08/23 03:54:26;;;;;;;33.67;18.05;;;15.60;99.90;;;;;;5075986;28;20083;-73
2022/08/23 03:57:01;;;;;;;31.50;17.63;;;15.60;99.90;;;;;;5093753;28;20058;-73
2022/08/23 03:59:28;;;;;;;35.95;18.27;;;15.60;99.90;;;;;;5060416;28;20048;-72
2022/08/23 04:01:54;;;;;;;;;;;15.60;99.90;;;;;;5059830;28;20048;-71
2022/08/23 04:04:20;;;;;;;34.03;17.85;;;15.60;99.90;;;;;;5093774;28;19924;-76
2022/08/23 04:06:46;;;;;;;34.45;18.25;;;15.50;99.90;;;;;;5075833;28;20044;-73
2022/08/23 04:09:14;;;;;;;35.20;18.98;;;15.50;99.90;;;;;;5075800;28;20081;-73
2022/08/23 04:11:40;;;;;;;30.40;17.83;;;15.50;99.90;;;;;;5093333;28;20520;-72
2022/08/23 04:14:06;;;;;;;33.25;19.13;;;15.50;99.90;;;;;;5094548;28;20043;-73
2022/08/23 04:16:36;;;;;;;37.53;20.33;;;15.50;99.90;;;;;;5093659;28;20051;-73
2022/08/23 04:19:07;;;;;;;35.58;20.25;;;15.50;99.90;;;;;;5094252;28;20048;-74
2022/08/23 04:21:36;;;;;;;35.70;20.17;;;15.50;99.90;;;;;;5075385;28;20102;-72
2022/08/23 04:24:03;;;;;;;32.03;19.35;;;15.40;99.90;;;;;;5094271;28;20040;-73
2022/08/23 04:26:29;;;;;;;36.88;19.60;;;15.40;99.90;;;;;;5075457;28;20047;-75
2022/08/23 04:28:55;;;;;;;37.30;19.80;;;15.40;99.90;;;;;;5059423;28;20040;-72
2022/08/23 04:31:24;;;;;;;38.60;20.83;;;15.40;99.90;;;;;;5059471;28;20076;-72
2022/08/23 04:33:51;;;;;;;40.13;20.88;;;15.40;99.90;;;;;;5059792;28;20054;-72
2022/08/23 04:36:17;;;;;;;41.60;20.63;;;15.40;99.90;;;;;;5042589;28;20048;-72
2022/08/23 04:38:42;;;;;;;38.78;20.50;;;15.40;99.90;;;;;;5075009;28;20048;-72
2022/08/23 04:43:55;;;;;;;39.95;20.88;;;15.40;99.90;;;;;;5075352;28;20044;-73
2022/08/23 04:46:22;;;;;;;42.45;19.95;;;15.40;99.90;;;;;;5075243;28;20044;-73
2022/08/23 04:48:47;;;;;;;39.85;21.38;;;15.40;99.90;;;;;;5093156;28;20129;-72
2022/08/23 04:51:14;;;;;;;41.05;20.98;;;15.50;99.90;;;;;;5075221;28;20083;-72
2022/08/23 04:53:40;;;;;;;37.45;21.02;;;15.40;99.90;;;;;;5058485;28;20136;-72
2022/08/23 04:56:07;;;;;;;34.53;20.17;;;15.50;99.90;;;;;;5075158;28;20117;-72
2022/08/23 04:58:35;;;;;;;32.67;20.08;;;15.50;99.90;;;;;;5075459;28;20390;-71
2022/08/23 05:01:05;;;;;;;38.53;20.45;;;15.60;99.90;;;;;;5075243;28;20131;-73
2022/08/23 05:03:30;;;;;;;35.10;19.65;;;15.60;99.90;;;;;;5092928;28;20048;-72
2022/08/23 05:05:57;;;;;;;32.75;20.25;;;15.60;99.90;;;;;;5074985;28;20048;-73
2022/08/23 05:08:24;;;;;;;35.95;19.80;;;15.70;99.90;;;;;;5074902;28;20131;-72
2022/08/23 05:10:49;;;;;;;35.05;19.27;;;15.70;99.90;;;;;;5074851;28;20048;-71
2022/08/23 05:13:15;;;;;;;32.00;19.08;;;15.80;99.90;;;;;;5074800;28;20040;-71
2022/08/23 05:15:43;;;;;;;32.17;18.80;;;15.80;99.90;;;;;;5092898;28;20143;-72
2022/08/23 05:18:09;;;;;;;34.38;19.63;;;15.80;99.90;;;;;;5092900;28;20048;-72
2022/08/23 05:20:35;;;;;;;31.43;19.50;;;15.90;99.90;;;;;;5092722;28;20126;-71
2022/08/23 05:23:01;;;;;;;30.42;18.92;;;16.00;99.90;;;;;;5074952;28;20147;-72
2022/08/23 05:25:48;;;;;;;32.90;19.13;;;16.00;99.90;;;;;;5058824;28;20097;-71
2022/08/23 05:28:13;;;;;;;31.10;18.73;;;16.10;99.90;;;;;;5092738;28;20048;-71
2022/08/23 05:30:39;;;;;;;33.63;18.48;;;16.30;99.90;;;;;;5075554;28;20054;-74
2022/08/23 05:33:04;;;;;;;30.13;18.10;;;16.40;99.90;;;;;;5091617;28;20484;-72
2022/08/23 05:35:31;;;;;;;28.25;18.33;;;16.50;99.90;;;;;;5092695;28;20047;-79
2022/08/23 05:37:59;;;;;;;30.95;19.08;;;16.70;99.90;;;;;;5075895;28;20048;-71
2022/08/23 05:40:26;;;;;;;31.35;18.75;;;16.80;99.90;;;;;;5079426;28;20052;-74
2022/08/23 05:42:52;;;;;;;29.77;18.88;;;16.90;99.90;;;;;;5079157;28;20379;-71
2022/08/23 05:45:18;;;;;;;44.78;20.38;;;17.10;99.90;;;;;;5062041;28;20088;-71
2022/08/23 05:47:45;;;;;;;30.60;18.65;;;17.20;99.90;;;;;;5096162;28;20080;-72
2022/08/23 05:50:11;;;;;;;35.78;18.95;;;17.40;99.90;;;;;;5061938;28;20052;-73
2022/08/23 05:52:38;;;;;;;31.25;18.63;;;17.60;99.90;;;;;;5078407;28;20128;-73
2022/08/23 05:55:05;;;;;;;30.95;18.27;;;17.70;99.90;;;;;;5096692;28;20047;-73
2022/08/23 05:57:33;;;;;;;30.25;17.73;;;17.80;99.90;;;;;;5096372;28;20070;-73
2022/08/23 05:59:59;;;;;;;25.88;17.25;;;17.90;99.90;;;;;;5096381;28;20055;-72
2022/08/23 06:02:25;;;;;;;27.83;17.40;;;17.90;99.90;;;;;;5079064;28;20419;-72
2022/08/23 06:04:51;;;;;;;28.83;17.27;;;18.00;99.90;;;;;;5095605;28;20044;-73
2022/08/23 06:07:16;;;;;;;27.47;17.50;;;18.10;99.90;;;;;;5096150;28;20195;-72
2022/08/23 06:09:42;;;;;;;31.73;17.33;;;18.10;99.90;;;;;;5078303;28;20040;-74
2022/08/23 06:12:08;;;;;;;32.17;17.33;;;18.20;99.90;;;;;;5096471;28;20083;-73
2022/08/23 06:14:34;;;;;;;28.93;16.87;;;18.20;99.90;;;;;;5096144;28;20485;-79
2022/08/23 06:16:59;;;;;;;26.55;18.10;;;18.30;99.90;;;;;;5062354;28;20052;-73
2022/08/23 06:19:25;;;;;;;30.63;17.80;;;18.30;99.90;;;;;;5095257;28;20472;-74
2022/08/23 06:21:51;;;;;;;27.03;16.43;;;18.30;99.90;;;;;;5078926;28;20409;-72
2022/08/23 06:24:18;;;;;;;36.10;17.75;;;18.30;99.90;;;;;;5061889;28;20301;-72
2022/08/23 06:26:44;;;;;;;25.50;16.30;;;18.40;99.90;;;;;;5095640;28;20457;-74
2022/08/23 06:29:13;;;;;;;27.45;17.67;;;18.30;99.90;;;;;;5095042;28;20044;-72
2022/08/23 06:31:45;;;;;;;26.10;17.55;;;18.40;99.90;;;;;;5095826;28;20044;-71
2022/08/23 06:34:17;;;;;;;32.22;17.90;;;18.40;99.90;;;;;;5062417;28;20105;-73
2022/08/23 06:36:44;;;;;;;37.03;18.73;;;18.40;99.90;;;;;;5058137;28;20091;-72
2022/08/23 06:39:11;;;;;;;;;;;18.40;99.90;;;;;;5076635;28;20299;-72
2022/08/23 06:41:37;;;;;;;25.42;17.73;;;18.40;99.90;;;;;;5075314;28;20390;-74
2022/08/23 06:44:03;;;;;;;29.20;17.30;;;18.40;99.90;;;;;;5076366;28;20092;-72
2022/08/23 06:46:29;;;;;;;26.83;18.05;;;18.50;99.90;;;;;;5076196;28;20079;-72
2022/08/23 06:48:56;;;;;;;28.05;17.48;;;18.50;99.90;;;;;;5073787;28;20063;-72
2022/08/23 06:51:25;;;;;;;30.08;17.45;;;18.50;99.90;;;;;;5074547;28;20060;-74
2022/08/23 06:53:53;;;;;;;30.58;17.38;;;18.60;99.90;;;;;;5076438;28;20079;-73
2022/08/23 06:56:21;;;;;;;29.38;17.80;;;18.60;99.90;;;;;;5076600;28;20059;-73
2022/08/23 06:58:47;;;;;;;25.92;17.52;;;18.70;99.90;;;;;;5078182;28;20085;-72
2022/08/23 07:01:24;;;;;;;31.67;18.23;;;18.70;99.90;;;;;;5060928;28;20040;-75
2022/08/23 07:03:54;;;;;;;34.15;18.48;;;18.80;99.90;;;;;;5077434;28;20048;-72
2022/08/23 07:06:22;;;;;;;23.85;16.98;;;18.90;99.90;;;;;;5078929;28;20147;-71
2022/08/23 07:08:48;;;;;;;27.38;16.77;;;19.00;99.90;;;;;;5080971;28;20107;-73
2022/08/23 07:11:13;;;;;;;25.53;17.00;;;19.20;99.90;;;;;;5080287;28;20040;-72
2022/08/23 07:13:39;;;;;;;35.47;17.00;;;19.30;99.90;;;;;;5080680;28;20040;-82
2022/08/23 07:16:05;;;;;;;27.97;18.00;;;19.50;99.90;;;;;;5078662;28;20044;-72
2022/08/23 07:18:32;;;;;;;26.15;16.90;;;19.70;99.90;;;;;;5078212;28;20040;-74
2022/08/23 07:20:59;;;;;;;31.65;18.08;;;19.80;99.90;;;;;;5076084;28;20056;-73
2022/08/23 07:23:26;;;;;;;24.05;17.30;;;19.90;99.90;;;;;;5078596;28;20040;-72
2022/08/23 07:25:52;;;;;;;25.42;16.60;;;20.00;99.90;;;;;;5078275;28;20053;-72
2022/08/23 07:28:19;;;;;;;26.63;17.70;;;20.00;99.90;;;;;;5076721;28;20048;-72
2022/08/23 07:30:45;;;;;;;28.85;17.98;;;20.10;99.90;;;;;;5076939;28;20051;-74
2022/08/23 07:33:10;;;;;;;26.73;17.42;;;20.20;99.90;;;;;;5059883;28;20092;-75
2022/08/23 07:35:36;;;;;;;26.20;17.00;;;20.30;99.90;;;;;;5080555;28;20045;-74
2022/08/23 07:38:02;;;;;;;32.38;17.38;;;20.30;99.90;;;;;;5079160;28;20128;-74
2022/08/23 07:40:28;;;;;;;27.77;16.33;;;20.50;99.90;;;;;;5080378;28;20052;-71
2022/08/23 07:42:57;;;;;;;26.07;17.33;;;20.60;99.90;;;;;;5061706;28;20048;-73
2022/08/23 07:45:23;;;;;;;31.70;17.02;;;20.60;99.90;;;;;;5078195;28;20048;-72
2022/08/23 07:47:48;;;;;;;27.63;16.83;;;20.70;99.90;;;;;;5077007;28;20041;-72
2022/08/23 07:50:14;;;;;;;26.80;16.67;;;20.90;99.90;;;;;;5094193;28;20075;-73
2022/08/23 07:52:40;;;;;;;27.50;17.53;;;21.10;99.90;;;;;;5079592;28;20058;-72
2022/08/23 07:55:06;;;;;;;28.87;17.07;;;21.20;99.90;;;;;;5079131;28;20119;-72
2022/08/23 07:57:32;;;;;;;27.52;17.60;;;21.30;99.90;;;;;;5076478;28;20041;-72
2022/08/23 07:59:58;;;;;;;26.30;17.37;;;21.50;99.90;;;;;;5059430;28;20060;-74
2022/08/23 08:02:23;;;;;;;27.50;18.73;;;21.60;99.90;;;;;;5077170;28;20047;-74
2022/08/23 08:04:49;;;;;;;29.43;17.83;;;21.70;99.90;;;;;;5075850;28;20500;-73
2022/08/23 08:07:15;;;;;;;25.03;17.27;;;21.80;99.90;;;;;;5077814;28;20116;-72
2022/08/23 08:09:40;;;;;;;29.53;17.50;;;21.80;99.90;;;;;;5076154;28;20388;-73
2022/08/23 08:12:06;;;;;;;27.37;16.80;;;21.90;99.90;;;;;;5077236;28;20377;-71
2022/08/23 08:14:32;;;;;;;27.37;17.83;;;22.00;99.90;;;;;;5059233;28;20142;-72
2022/08/23 08:16:59;;;;;;;31.50;16.73;;;22.10;99.90;;;;;;5061780;28;20052;-73
2022/08/23 08:19:25;;;;;;;26.35;17.13;;;22.20;99.90;;;;;;5077927;28;20141;-75
2022/08/23 08:21:50;;;;;;;27.47;17.70;;;22.30;99.90;;;;;;5076973;28;20040;-74
2022/08/23 08:24:17;;;;;;;26.27;16.30;;;22.50;99.90;;;;;;5091839;28;20127;-72
2022/08/23 08:26:43;;;;;;;32.22;17.63;;;22.60;99.90;;;;;;5076428;28;20181;-72
2022/08/23 08:29:10;;;;;;;33.13;17.60;;;22.70;99.90;;;;;;5074903;28;20056;-72
2022/08/23 08:31:38;;;;;;;26.58;17.08;;;22.90;99.90;;;;;;5074753;28;20052;-74
2022/08/23 08:34:05;;;;;;;29.92;16.13;;;22.90;99.90;;;;;;5075872;28;20059;-73
2022/08/23 08:36:40;;;;;;;28.33;16.88;;;23.00;99.90;;;;;;5073730;28;20056;-80
2022/08/23 08:39:09;;;;;;;29.10;17.20;;;22.90;99.90;;;;;;5075647;28;20088;-72
2022/08/23 08:41:55;;;;;;;24.40;17.38;;;22.90;99.90;;;;;;5074847;28;20041;-75
2022/08/23 08:44:33;;;;;;;27.33;17.55;;;23.00;99.90;;;;;;5075438;28;20132;-74
2022/08/23 08:46:59;;;;;;;27.95;17.42;;;23.00;99.90;;;;;;5074957;28;20149;-72
2022/08/23 08:49:37;;;;;;;30.67;17.60;;;23.00;99.90;;;;;;5074067;28;20119;-73
2022/08/23 08:52:15;;;;;;;31.60;17.95;;;23.10;99.90;;;;;;5072941;28;20056;-72
2022/08/23 08:54:44;;;;;;;30.00;17.52;;;23.00;99.90;;;;;;5074702;28;20052;-72
2022/08/23 08:57:14;;;;;;;26.33;18.05;;;23.10;99.90;;;;;;5073384;28;20488;-73
2022/08/23 09:00:00;;;;;;;28.35;17.88;;;23.30;99.90;;;;;;5074165;28;20052;-74
2022/08/23 09:02:32;;;;;;;;;;;23.60;99.90;;;;;;5074219;28;20495;-74
2022/08/23 09:05:11;;;;;;;28.02;16.80;;;23.90;99.90;;;;;;5075781;28;19927;-73
2022/08/23 09:07:53;;;;;;;30.45;17.58;;;24.10;99.90;;;;;;5058638;28;20115;-73
2022/08/23 09:10:42;;;;;;;31.73;17.90;;;23.90;99.90;;;;;;5074254;28;20056;-73
2022/08/23 09:13:35;;;;;;;24.50;16.55;;;23.90;99.90;;;;;;5075989;28;20040;-73
2022/08/23 09:16:37;;;;;;;29.92;17.98;;;24.10;99.90;;;;;;5074581;28;20515;-72
2022/08/23 09:19:04;;;;;;;29.17;17.85;;;24.10;99.90;;;;;;5073425;28;20086;-73
2022/08/23 09:21:39;;;;;;;28.80;17.83;;;24.10;99.90;;;;;;5073847;28;20053;-72
2022/08/23 09:24:05;;;;;;;27.38;17.33;;;24.10;99.90;;;;;;5074970;28;20044;-73
2022/08/23 09:26:31;;;;;;;33.07;17.97;;;24.20;99.90;;;;;;5056301;28;20583;-80
2022/08/23 09:29:15;;;;;;;28.58;16.50;;;24.20;99.90;;;;;;5072626;28;20045;-76
2022/08/23 09:31:44;;;;;;;23.77;16.00;;;24.30;99.90;;;;;;5074495;28;20090;-73
2022/08/23 09:34:21;;;;;;;32.55;16.77;;;24.40;99.90;;;;;;5073256;28;20511;-73
2022/08/23 09:36:47;;;;;;;25.23;16.52;;;24.40;99.90;;;;;;5056383;28;20146;-73
2022/08/23 09:39:31;;;;;;;28.45;16.42;;;24.40;99.90;;;;;;5072439;28;20060;-73
2022/08/23 09:41:58;;;;;;;27.10;18.02;;;24.50;99.90;;;;;;5073107;28;20048;-75
2022/08/23 09:44:38;;;;;;;;;;;24.50;99.90;;;;;;5073885;28;20175;-79
2022/08/23 09:47:10;;;;;;;28.70;16.77;;;24.50;99.90;;;;;;5040151;28;19930;-75
2022/08/23 09:49:40;;;;;;;22.42;13.43;;;24.60;99.90;;;;;;5056892;28;20056;-75
2022/08/23 09:52:24;;;;;;;28.35;15.85;;;24.70;99.90;;;;;;5088878;28;20078;-73
2022/08/23 09:55:01;;;;;;;27.02;15.07;;;24.70;99.90;;;;;;5072432;28;20144;-74
2022/08/23 09:57:30;;;;;;;27.17;14.52;;;24.70;99.90;;;;;;5071760;28;20071;-72
2022/08/23 10:00:16;;;;;;;30.17;13.73;;;24.80;99.90;;;;;;5073146;28;20099;-74
2022/08/23 10:02:43;;;;;;;24.73;13.68;;;24.90;99.90;;;;;;5073041;28;20048;-74
2022/08/23 10:05:14;;;;;;;29.20;14.82;;;25.00;99.90;;;;;;5071191;28;20053;-73
2022/08/23 10:07:43;;;;;;;24.00;15.80;;;25.10;99.90;;;;;;5071322;28;20048;-74
2022/08/23 10:10:31;;;;;;;26.08;12.35;;;25.20;99.90;;;;;;5054786;28;20082;-72
2022/08/23 10:12:58;;;;;;;21.52;12.00;;;25.20;99.90;;;;;;5072036;28;20438;-75
2022/08/23 10:15:52;;;;;;;23.38;13.32;;;25.20;99.90;;;;;;5071352;28;20401;-75
2022/08/23 10:18:29;;;;;;;20.92;12.23;;;25.20;99.90;;;;;;5073003;28;20047;-73
2022/08/23 10:21:16;;;;;;;23.45;12.07;;;25.30;99.90;;;;;;5055490;28;20051;-73
2022/08/23 10:24:04;;;;;;;24.98;12.18;;;25.40;99.90;;;;;;5055632;28;20131;-76
2022/08/23 10:26:32;;;;;;;23.65;11.93;;;25.50;99.90;;;;;;5075481;28;20519;-78
2022/08/23 10:32:06;;;;;;;22.77;13.60;;;25.70;99.90;;;;;;5074763;28;20195;-74
2022/08/23 10:34:57;;;;;;;22.00;12.17;;;25.70;99.90;;;;;;5074959;28;20045;-75
2022/08/23 10:37:54;;;;;;;26.67;14.40;;;25.70;99.90;;;;;;5074645;28;20303;-73
2022/08/23 10:40:38;;;;;;;21.27;10.63;;;25.90;99.90;;;;;;5074096;28;20044;-73
2022/08/23 10:43:09;;;;;;;15.75;9.73;;;26.10;99.90;;;;;;5075537;28;20055;-75
2022/08/23 10:45:37;;;;;;;20.45;10.48;;;26.20;99.90;;;;;;5074583;28;20098;-73
2022/08/23 10:48:27;;;;;;;24.85;13.55;;;26.10;99.90;;;;;;5074450;28;20090;-73
2022/08/23 10:51:02;;;;;;;21.38;10.65;;;26.10;99.40;;;;;;5074976;28;20102;-73
2022/08/23 10:53:40;;;;;;;20.75;12.13;;;26.10;99.90;;;;;;5075067;28;20083;-74
2022/08/23 10:56:06;;;;;;;20.92;10.77;;;26.20;99.90;;;;;;5073991;28;20114;-72
2022/08/23 10:58:56;;;;;;;21.23;9.00;;;26.30;99.90;;;;;;5090374;28;20128;-72
2022/08/23 11:02:03;;;;;;;15.32;8.05;;;26.40;99.90;;;;;;5074988;28;20088;-72
2022/08/23 11:04:33;;;;;;;17.35;7.60;;;26.50;99.90;;;;;;5073221;28;20056;-73
2022/08/23 11:07:13;;;;;;;16.73;6.90;;;26.60;98.70;;;;;;5073638;28;20041;-73
2022/08/23 11:10:07;;;;;;;17.25;7.32;;;26.50;99.10;;;;;;5074861;28;20040;-73
2022/08/23 11:12:50;;;;;;;22.20;7.85;;;26.60;98.40;;;;;;5074428;28;20049;-74
2022/08/23 11:15:26;;;;;;;18.88;7.75;;;26.70;98.40;;;;;;5073626;28;20040;-73
2022/08/23 11:17:56;;;;;;;20.50;7.97;;;26.70;98.10;;;;;;5074897;28;20055;-75
2022/08/23 11:20:49;;;;;;;17.95;8.65;;;26.80;97.90;;;;;;5074374;28;20056;-74
2022/08/23 11:23:33;;;;;;;17.70;10.20;;;27.00;97.50;;;;;;5073145;28;20055;-72
2022/08/23 11:26:00;;;;;;;21.00;8.15;;;27.00;96.90;;;;;;5074635;28;20048;-74
2022/08/23 11:28:26;;;;;;;17.02;7.30;;;27.20;97.80;;;;;;5075004;28;20051;-75
2022/08/23 11:30:58;;;;;;;14.70;6.93;;;27.30;97.20;;;;;;5074114;28;20482;-73
2022/08/23 11:33:27;;;;;;;15.88;5.10;;;27.20;93.60;;;;;;5056834;28;20517;-76
2022/08/23 11:36:08;;;;;;;17.25;6.03;;;27.20;95.00;;;;;;5074817;28;20043;-73
2022/08/23 11:38:46;;;;;;;17.23;6.35;;;27.10;94.30;;;;;;5094337;28;20052;-75
2022/08/23 11:41:32;;;;;;;20.02;7.40;;;27.10;95.00;;;;;;5094650;28;20044;-80
2022/08/23 11:44:01;;;;;;;23.05;7.35;;;27.10;93.20;;;;;;5077225;28;20123;-73
2022/08/23 11:46:26;;;;;;;18.73;7.45;;;27.10;93.90;;;;;;5094898;28;20048;-74
2022/08/23 11:49:24;;;;;;;20.25;6.32;;;27.20;94.90;;;;;;5076528;28;20048;-73
2022/08/23 11:52:17;;;;;;;15.30;6.55;;;27.30;94.60;;;;;;5094421;28;20057;-72
2022/08/23 11:55:05;;;;;;;17.15;6.20;;;27.20;92.80;;;;;;5076239;28;20043;-73
2022/08/23 11:57:31;;;;;;;19.95;6.70;;;27.20;93.90;;;;;;5076532;28;20043;-74
2022/08/23 12:00:10;;;;;;;13.93;6.60;;;27.20;91.30;;;;;;5076319;28;20039;-74
2022/08/23 12:03:00;;;;;;;14.40;6.78;;;27.30;91.00;;;;;;5075986;28;20070;-73
2022/08/23 12:05:39;;;;;;;16.63;5.63;;;27.40;92.30;;;;;;5094286;28;20052;-72
2022/08/23 12:08:06;;;;;;;16.52;5.18;;;27.50;92.40;;;;;;5093938;28;20044;-73
2022/08/23 12:10:40;;;;;;;14.55;6.22;;;27.60;92.00;;;;;;5094230;28;20093;-76
2022/08/23 12:13:21;;;;;;;21.38;6.53;;;27.80;91.10;;;;;;5059469;28;20052;-73
2022/08/23 12:16:11;;;;;;;13.20;5.80;;;27.60;85.80;;;;;;5076534;28;20105;-73
2022/08/23 12:18:49;;;;;;;15.85;5.72;;;27.60;90.60;;;;;;5075928;28;20048;-73
2022/08/23 12:21:32;;;;;;;18.52;6.40;;;27.70;89.70;;;;;;5094129;28;20112;-74
2022/08/23 12:24:12;;;;;;;16.27;6.35;;;27.70;90.10;;;;;;5093874;28;20048;-72
2022/08/23 12:26:41;;;;;;;19.45;6.35;;;27.70;90.40;;;;;;5094131;28;20063;-74
2022/08/23 12:29:24;;;;;;;13.23;6.50;;;27.80;91.10;;;;;;5059107;28;20111;-74
2022/08/23 12:32:08;;;;;;;17.10;6.10;;;28.00;90.80;;;;;;5075407;28;20056;-73
2022/08/23 12:34:50;;;;;;;14.85;5.53;;;28.00;89.70;;;;;;5076097;28;20048;-73
2022/08/23 12:37:25;;;;;;;16.13;6.03;;;28.20;90.20;;;;;;5075272;28;20495;-72
2022/08/23 12:39:57;;;;;;;14.23;6.03;;;28.50;87.70;;;;;;5076232;28;20129;-74
2022/08/23 12:42:33;;;;;;;15.73;6.60;;;28.90;89.70;;;;;;5058440;28;20051;-75
2022/08/23 12:45:22;;;;;;;13.85;6.50;;;28.70;82.90;;;;;;5093207;28;20044;-74
2022/08/23 12:47:57;;;;;;;16.83;6.03;;;28.80;84.00;;;;;;5076126;28;20066;-73
2022/08/23 12:50:39;;;;;;;15.88;6.50;;;28.90;86.00;;;;;;5093846;28;20044;-74
2022/08/23 12:53:14;;;;;;;19.38;7.07;;;29.00;84.70;;;;;;5075904;28;20542;-76
2022/08/23 12:55:44;;;;;;;14.63;6.60;;;29.20;83.90;;;;;;5075527;28;20169;-74
2022/08/23 12:58:12;;;;;;;15.55;6.20;;;29.30;85.70;;;;;;5075981;28;20368;-76
2022/08/23 13:00:42;;;;;;;12.23;6.43;;;29.40;85.00;;;;;;5058719;28;20044;-75